sensor_id;sensor_type;location;lat;lon;timestamp;P1;durP1;ratioP1;P2;durP2;ratioP2
21862;SDS011;11096;51.338;12.524;2022-10-18T00:02:22;7.40;;;3.88;;
21862;SDS011;11096;51.338;12.524;2022-10-18T00:04:48;8.15;;;3.45;;
21862;SDS011;11096;51.338;12.524;2022-10-18T00:07:13;5.63;;;3.28;;
21862;SDS011;11096;51.338;12.524;2022-10-18T00:09:38;6.28;;;3.45;;
21862;SDS011;11096;51.338;12.524;2022-10-18T00:12:04;5.45;;;3.03;;
21862;SDS011;11096;51.338;12.524;2022-10-18T00:14:29;5.93;;;3.10;;
21862;SDS011;11096;51.338;12.524;2022-10-18T00:16:55;6.75;;;3.47;;
21862;SDS011;11096;51.338;12.524;2022-10-18T00:19:20;4.50;;;3.20;;
21862;SDS011;11096;51.338;12.524;2022-10-18T00:21:45;5.45;;;3.40;;
21862;SDS011;11096;51.338;12.524;2022-10-18T00:24:14;8.80;;;3.42;;
21862;SDS011;11096;51.338;12.524;2022-10-18T00:26:39;5.20;;;3.47;;
21862;SDS011;11096;51.338;12.524;2022-10-18T00:29:04;4.45;;;3.28;;
21862;SDS011;11096;51.338;12.524;2022-10-18T00:31:34;9.20;;;3.45;;
21862;SDS011;11096;51.338;12.524;2022-10-18T00:34:02;6.95;;;3.65;;
21862;SDS011;11096;51.338;12.524;2022-10-18T00:36:30;4.18;;;3.20;;
21862;SDS011;11096;51.338;12.524;2022-10-18T00:38:58;6.45;;;3.33;;
21862;SDS011;11096;51.338;12.524;2022-10-18T00:41:25;4.60;;;3.00;;
21862;SDS011;11096;51.338;12.524;2022-10-18T00:46:37;5.45;;;3.30;;
21862;SDS011;11096;51.338;12.524;2022-10-18T00:49:11;5.50;;;3.50;;
21862;SDS011;11096;51.338;12.524;2022-10-18T00:51:38;4.82;;;3.30;;
21862;SDS011;11096;51.338;12.524;2022-10-18T00:54:08;4.05;;;3.08;;
21862;SDS011;11096;51.338;12.524;2022-10-18T00:56:34;4.53;;;2.80;;
21862;SDS011;11096;51.338;12.524;2022-10-18T00:59:00;4.47;;;3.33;;
21862;SDS011;11096;51.338;12.524;2022-10-18T01:01:25;5.22;;;3.40;;
21862;SDS011;11096;51.338;12.524;2022-10-18T01:03:51;6.80;;;3.22;;
21862;SDS011;11096;51.338;12.524;2022-10-18T01:06:17;5.18;;;3.33;;
21862;SDS011;11096;51.338;12.524;2022-10-18T01:08:44;6.18;;;3.47;;
21862;SDS011;11096;51.338;12.524;2022-10-18T01:16:46;3.78;;;2.88;;
21862;SDS011;11096;51.338;12.524;2022-10-18T01:21:58;7.07;;;3.30;;
21862;SDS011;11096;51.338;12.524;2022-10-18T01:32:57;5.45;;;3.45;;
21862;SDS011;11096;51.338;12.524;2022-10-18T01:35:30;4.05;;;3.08;;
21862;SDS011;11096;51.338;12.524;2022-10-18T01:38:01;4.88;;;3.20;;
21862;SDS011;11096;51.338;12.524;2022-10-18T01:40:30;3.80;;;2.95;;
21862;SDS011;11096;51.338;12.524;2022-10-18T01:42:59;6.35;;;2.85;;
21862;SDS011;11096;51.338;12.524;2022-10-18T01:45:27;4.13;;;2.88;;
21862;SDS011;11096;51.338;12.524;2022-10-18T01:47:53;5.05;;;2.90;;
21862;SDS011;11096;51.338;12.524;2022-10-18T01:50:29;6.40;;;2.90;;
21862;SDS011;11096;51.338;12.524;2022-10-18T01:52:56;3.80;;;2.78;;
21862;SDS011;11096;51.338;12.524;2022-10-18T01:55:24;4.93;;;3.28;;
21862;SDS011;11096;51.338;12.524;2022-10-18T01:58:20;4.10;;;3.05;;
21862;SDS011;11096;51.338;12.524;2022-10-18T02:01:06;5.22;;;2.67;;
21862;SDS011;11096;51.338;12.524;2022-10-18T02:03:35;6.15;;;2.88;;
21862;SDS011;11096;51.338;12.524;2022-10-18T02:06:18;4.88;;;3.17;;
21862;SDS011;11096;51.338;12.524;2022-10-18T02:08:49;4.57;;;3.20;;
21862;SDS011;11096;51.338;12.524;2022-10-18T02:11:33;5.38;;;3.10;;
21862;SDS011;11096;51.338;12.524;2022-10-18T02:14:07;4.40;;;3.20;;
21862;SDS011;11096;51.338;12.524;2022-10-18T02:16:38;5.07;;;2.90;;
21862;SDS011;11096;51.338;12.524;2022-10-18T02:19:14;3.75;;;2.70;;
21862;SDS011;11096;51.338;12.524;2022-10-18T02:21:53;5.55;;;3.50;;
21862;SDS011;11096;51.338;12.524;2022-10-18T02:24:23;5.93;;;3.15;;
21862;SDS011;11096;51.338;12.524;2022-10-18T02:27:05;6.10;;;2.90;;
21862;SDS011;11096;51.338;12.524;2022-10-18T02:29:31;4.32;;;3.25;;
21862;SDS011;11096;51.338;12.524;2022-10-18T02:32:02;5.05;;;3.55;;
21862;SDS011;11096;51.338;12.524;2022-10-18T02:34:37;5.57;;;3.53;;
21862;SDS011;11096;51.338;12.524;2022-10-18T02:37:06;5.00;;;3.33;;
21862;SDS011;11096;51.338;12.524;2022-10-18T02:39:35;5.43;;;3.67;;
21862;SDS011;11096;51.338;12.524;2022-10-18T02:42:04;6.35;;;3.72;;
21862;SDS011;11096;51.338;12.524;2022-10-18T02:44:31;6.38;;;3.97;;
21862;SDS011;11096;51.338;12.524;2022-10-18T02:46:57;7.80;;;3.80;;
21862;SDS011;11096;51.338;12.524;2022-10-18T02:49:22;4.93;;;3.28;;
21862;SDS011;11096;51.338;12.524;2022-10-18T02:51:48;5.72;;;3.25;;
21862;SDS011;11096;51.338;12.524;2022-10-18T02:54:13;4.40;;;3.13;;
21862;SDS011;11096;51.338;12.524;2022-10-18T02:56:38;4.57;;;3.53;;
21862;SDS011;11096;51.338;12.524;2022-10-18T02:59:04;5.55;;;3.88;;
21862;SDS011;11096;51.338;12.524;2022-10-18T03:01:31;6.70;;;3.65;;
21862;SDS011;11096;51.338;12.524;2022-10-18T03:03:57;6.35;;;3.58;;
21862;SDS011;11096;51.338;12.524;2022-10-18T03:06:22;5.03;;;3.33;;
21862;SDS011;11096;51.338;12.524;2022-10-18T03:08:48;5.53;;;3.20;;
21862;SDS011;11096;51.338;12.524;2022-10-18T03:11:13;7.80;;;3.17;;
21862;SDS011;11096;51.338;12.524;2022-10-18T03:13:38;4.15;;;3.30;;
21862;SDS011;11096;51.338;12.524;2022-10-18T03:16:04;5.30;;;3.65;;
21862;SDS011;11096;51.338;12.524;2022-10-18T03:18:29;4.75;;;3.28;;
21862;SDS011;11096;51.338;12.524;2022-10-18T03:20:54;6.07;;;3.72;;
21862;SDS011;11096;51.338;12.524;2022-10-18T03:23:20;8.00;;;3.75;;
21862;SDS011;11096;51.338;12.524;2022-10-18T03:25:45;6.35;;;3.75;;
21862;SDS011;11096;51.338;12.524;2022-10-18T03:28:10;4.93;;;3.58;;
21862;SDS011;11096;51.338;12.524;2022-10-18T03:30:36;5.22;;;3.30;;
21862;SDS011;11096;51.338;12.524;2022-10-18T03:33:03;3.88;;;3.33;;
21862;SDS011;11096;51.338;12.524;2022-10-18T03:35:29;3.67;;;3.25;;
21862;SDS011;11096;51.338;12.524;2022-10-18T03:37:55;6.53;;;3.35;;
21862;SDS011;11096;51.338;12.524;2022-10-18T03:40:20;7.15;;;3.45;;
21862;SDS011;11096;51.338;12.524;2022-10-18T03:42:45;7.85;;;3.88;;
21862;SDS011;11096;51.338;12.524;2022-10-18T03:45:11;8.63;;;3.30;;
21862;SDS011;11096;51.338;12.524;2022-10-18T03:47:36;4.65;;;3.65;;
21862;SDS011;11096;51.338;12.524;2022-10-18T03:50:01;5.13;;;3.65;;
21862;SDS011;11096;51.338;12.524;2022-10-18T03:52:27;5.07;;;3.40;;
21862;SDS011;11096;51.338;12.524;2022-10-18T03:54:52;5.30;;;3.53;;
21862;SDS011;11096;51.338;12.524;2022-10-18T03:57:18;5.75;;;3.50;;
21862;SDS011;11096;51.338;12.524;2022-10-18T03:59:43;6.20;;;3.92;;
21862;SDS011;11096;51.338;12.524;2022-10-18T04:02:08;5.47;;;3.63;;
21862;SDS011;11096;51.338;12.524;2022-10-18T04:04:34;4.15;;;3.47;;
21862;SDS011;11096;51.338;12.524;2022-10-18T04:06:59;5.25;;;3.78;;
21862;SDS011;11096;51.338;12.524;2022-10-18T04:09:25;4.75;;;3.55;;
21862;SDS011;11096;51.338;12.524;2022-10-18T04:11:50;4.18;;;3.60;;
21862;SDS011;11096;51.338;12.524;2022-10-18T04:14:15;6.95;;;3.85;;
21862;SDS011;11096;51.338;12.524;2022-10-18T04:16:41;5.03;;;3.25;;
21862;SDS011;11096;51.338;12.524;2022-10-18T04:19:07;4.82;;;3.40;;
21862;SDS011;11096;51.338;12.524;2022-10-18T04:21:32;4.85;;;3.42;;
21862;SDS011;11096;51.338;12.524;2022-10-18T04:23:57;4.25;;;3.08;;
21862;SDS011;11096;51.338;12.524;2022-10-18T04:26:23;6.55;;;3.65;;
21862;SDS011;11096;51.338;12.524;2022-10-18T04:28:48;6.82;;;3.80;;
21862;SDS011;11096;51.338;12.524;2022-10-18T04:31:13;5.00;;;3.95;;
21862;SDS011;11096;51.338;12.524;2022-10-18T04:33:39;5.78;;;3.97;;
21862;SDS011;11096;51.338;12.524;2022-10-18T04:36:04;4.90;;;3.50;;
21862;SDS011;11096;51.338;12.524;2022-10-18T04:38:29;6.32;;;4.13;;
21862;SDS011;11096;51.338;12.524;2022-10-18T04:40:55;6.10;;;4.22;;
21862;SDS011;11096;51.338;12.524;2022-10-18T04:43:20;5.68;;;3.65;;
21862;SDS011;11096;51.338;12.524;2022-10-18T04:45:46;7.32;;;4.40;;
21862;SDS011;11096;51.338;12.524;2022-10-18T04:48:12;9.20;;;4.80;;
21862;SDS011;11096;51.338;12.524;2022-10-18T04:50:41;5.82;;;3.92;;
21862;SDS011;11096;51.338;12.524;2022-10-18T04:53:06;5.53;;;4.38;;
21862;SDS011;11096;51.338;12.524;2022-10-18T04:55:31;7.30;;;4.50;;
21862;SDS011;11096;51.338;12.524;2022-10-18T04:57:57;6.80;;;4.88;;
21862;SDS011;11096;51.338;12.524;2022-10-18T05:00:22;6.50;;;4.30;;
21862;SDS011;11096;51.338;12.524;2022-10-18T05:02:47;6.78;;;4.22;;
21862;SDS011;11096;51.338;12.524;2022-10-18T05:05:13;7.80;;;5.13;;
21862;SDS011;11096;51.338;12.524;2022-10-18T05:07:38;6.45;;;4.50;;
21862;SDS011;11096;51.338;12.524;2022-10-18T05:10:04;6.78;;;4.40;;
21862;SDS011;11096;51.338;12.524;2022-10-18T05:12:29;6.63;;;4.25;;
21862;SDS011;11096;51.338;12.524;2022-10-18T05:14:54;8.50;;;4.47;;
21862;SDS011;11096;51.338;12.524;2022-10-18T05:17:20;6.90;;;4.28;;
21862;SDS011;11096;51.338;12.524;2022-10-18T05:19:45;9.32;;;6.35;;
21862;SDS011;11096;51.338;12.524;2022-10-18T05:22:11;8.85;;;4.90;;
21862;SDS011;11096;51.338;12.524;2022-10-18T05:24:36;6.35;;;4.63;;
21862;SDS011;11096;51.338;12.524;2022-10-18T05:27:01;6.65;;;4.15;;
21862;SDS011;11096;51.338;12.524;2022-10-18T05:29:27;8.90;;;5.35;;
21862;SDS011;11096;51.338;12.524;2022-10-18T05:31:52;7.35;;;4.88;;
21862;SDS011;11096;51.338;12.524;2022-10-18T05:34:18;7.10;;;4.78;;
21862;SDS011;11096;51.338;12.524;2022-10-18T05:36:44;9.75;;;5.05;;
21862;SDS011;11096;51.338;12.524;2022-10-18T05:39:10;6.93;;;4.65;;
21862;SDS011;11096;51.338;12.524;2022-10-18T05:41:35;8.35;;;5.45;;
21862;SDS011;11096;51.338;12.524;2022-10-18T05:44:03;7.22;;;4.80;;
21862;SDS011;11096;51.338;12.524;2022-10-18T05:46:29;8.65;;;4.90;;
21862;SDS011;11096;51.338;12.524;2022-10-18T05:48:55;8.00;;;5.03;;
21862;SDS011;11096;51.338;12.524;2022-10-18T05:51:21;6.43;;;4.20;;
21862;SDS011;11096;51.338;12.524;2022-10-18T05:53:46;8.48;;;4.88;;
21862;SDS011;11096;51.338;12.524;2022-10-18T05:56:11;6.35;;;4.50;;
21862;SDS011;11096;51.338;12.524;2022-10-18T05:58:37;7.15;;;4.93;;
21862;SDS011;11096;51.338;12.524;2022-10-18T06:01:04;8.02;;;5.28;;
21862;SDS011;11096;51.338;12.524;2022-10-18T06:03:30;8.85;;;5.38;;
21862;SDS011;11096;51.338;12.524;2022-10-18T06:05:59;9.00;;;5.10;;
21862;SDS011;11096;51.338;12.524;2022-10-18T06:08:24;7.57;;;5.18;;
21862;SDS011;11096;51.338;12.524;2022-10-18T06:10:50;8.85;;;4.85;;
21862;SDS011;11096;51.338;12.524;2022-10-18T06:13:15;9.02;;;6.22;;
21862;SDS011;11096;51.338;12.524;2022-10-18T06:15:40;8.52;;;5.53;;
21862;SDS011;11096;51.338;12.524;2022-10-18T06:18:06;8.95;;;5.55;;
21862;SDS011;11096;51.338;12.524;2022-10-18T06:20:31;10.10;;;5.38;;
21862;SDS011;11096;51.338;12.524;2022-10-18T06:22:56;10.73;;;6.20;;
21862;SDS011;11096;51.338;12.524;2022-10-18T06:25:21;10.98;;;6.30;;
21862;SDS011;11096;51.338;12.524;2022-10-18T06:27:47;11.13;;;6.72;;
21862;SDS011;11096;51.338;12.524;2022-10-18T06:30:12;10.15;;;6.25;;
21862;SDS011;11096;51.338;12.524;2022-10-18T06:32:38;9.98;;;6.30;;
21862;SDS011;11096;51.338;12.524;2022-10-18T06:35:03;9.90;;;5.72;;
21862;SDS011;11096;51.338;12.524;2022-10-18T06:37:28;11.35;;;6.15;;
21862;SDS011;11096;51.338;12.524;2022-10-18T06:39:54;9.57;;;6.45;;
21862;SDS011;11096;51.338;12.524;2022-10-18T06:42:19;9.02;;;6.68;;
21862;SDS011;11096;51.338;12.524;2022-10-18T06:44:45;9.93;;;6.20;;
21862;SDS011;11096;51.338;12.524;2022-10-18T06:47:11;9.93;;;5.75;;
21862;SDS011;11096;51.338;12.524;2022-10-18T06:49:37;9.43;;;5.65;;
21862;SDS011;11096;51.338;12.524;2022-10-18T06:52:02;7.50;;;5.00;;
21862;SDS011;11096;51.338;12.524;2022-10-18T06:54:27;7.68;;;5.10;;
21862;SDS011;11096;51.338;12.524;2022-10-18T06:56:56;7.68;;;4.97;;
21862;SDS011;11096;51.338;12.524;2022-10-18T06:59:22;9.15;;;5.45;;
21862;SDS011;11096;51.338;12.524;2022-10-18T07:01:47;11.32;;;5.68;;
21862;SDS011;11096;51.338;12.524;2022-10-18T07:04:12;7.70;;;5.43;;
21862;SDS011;11096;51.338;12.524;2022-10-18T07:06:38;9.40;;;5.80;;
21862;SDS011;11096;51.338;12.524;2022-10-18T07:09:03;9.73;;;5.93;;
21862;SDS011;11096;51.338;12.524;2022-10-18T07:11:28;10.60;;;5.97;;
21862;SDS011;11096;51.338;12.524;2022-10-18T07:13:57;8.38;;;5.90;;
21862;SDS011;11096;51.338;12.524;2022-10-18T07:16:26;9.00;;;6.13;;
21862;SDS011;11096;51.338;12.524;2022-10-18T07:18:52;8.30;;;6.10;;
21862;SDS011;11096;51.338;12.524;2022-10-18T07:21:18;11.38;;;6.28;;
21862;SDS011;11096;51.338;12.524;2022-10-18T07:23:45;10.93;;;6.20;;
21862;SDS011;11096;51.338;12.524;2022-10-18T07:26:15;10.55;;;6.25;;
21862;SDS011;11096;51.338;12.524;2022-10-18T07:28:41;7.85;;;5.65;;
21862;SDS011;11096;51.338;12.524;2022-10-18T07:31:08;13.93;;;8.77;;
21862;SDS011;11096;51.338;12.524;2022-10-18T07:33:35;11.05;;;7.10;;
21862;SDS011;11096;51.338;12.524;2022-10-18T07:36:04;12.65;;;8.23;;
21862;SDS011;11096;51.338;12.524;2022-10-18T07:38:31;13.48;;;8.60;;
21862;SDS011;11096;51.338;12.524;2022-10-18T07:40:57;15.05;;;8.82;;
21862;SDS011;11096;51.338;12.524;2022-10-18T07:43:23;14.10;;;9.77;;
21862;SDS011;11096;51.338;12.524;2022-10-18T07:46:07;18.98;;;10.07;;
21862;SDS011;11096;51.338;12.524;2022-10-18T07:48:33;13.05;;;8.90;;
21862;SDS011;11096;51.338;12.524;2022-10-18T07:50:59;15.45;;;9.38;;
21862;SDS011;11096;51.338;12.524;2022-10-18T07:53:25;11.77;;;8.52;;
21862;SDS011;11096;51.338;12.524;2022-10-18T07:55:51;15.93;;;10.73;;
21862;SDS011;11096;51.338;12.524;2022-10-18T07:58:16;20.33;;;10.80;;
21862;SDS011;11096;51.338;12.524;2022-10-18T08:00:41;17.83;;;11.18;;
21862;SDS011;11096;51.338;12.524;2022-10-18T08:03:07;15.57;;;10.32;;
21862;SDS011;11096;51.338;12.524;2022-10-18T08:05:32;20.98;;;11.48;;
21862;SDS011;11096;51.338;12.524;2022-10-18T08:07:58;26.58;;;14.27;;
21862;SDS011;11096;51.338;12.524;2022-10-18T08:10:23;23.55;;;13.20;;
21862;SDS011;11096;51.338;12.524;2022-10-18T08:12:49;19.92;;;13.35;;
21862;SDS011;11096;51.338;12.524;2022-10-18T08:15:15;31.45;;;16.38;;
21862;SDS011;11096;51.338;12.524;2022-10-18T08:17:40;25.27;;;15.70;;
21862;SDS011;11096;51.338;12.524;2022-10-18T08:20:07;12.38;;;8.35;;
21862;SDS011;11096;51.338;12.524;2022-10-18T08:22:33;10.18;;;6.65;;
21862;SDS011;11096;51.338;12.524;2022-10-18T08:24:58;11.07;;;6.07;;
21862;SDS011;11096;51.338;12.524;2022-10-18T08:27:24;7.20;;;4.85;;
21862;SDS011;11096;51.338;12.524;2022-10-18T08:29:50;6.40;;;4.22;;
21862;SDS011;11096;51.338;12.524;2022-10-18T08:32:15;6.30;;;3.80;;
21862;SDS011;11096;51.338;12.524;2022-10-18T08:34:41;5.75;;;3.90;;
21862;SDS011;11096;51.338;12.524;2022-10-18T08:37:06;5.82;;;3.60;;
21862;SDS011;11096;51.338;12.524;2022-10-18T08:39:31;6.03;;;3.67;;
21862;SDS011;11096;51.338;12.524;2022-10-18T08:42:07;8.32;;;3.55;;
21862;SDS011;11096;51.338;12.524;2022-10-18T08:44:48;5.28;;;3.92;;
21862;SDS011;11096;51.338;12.524;2022-10-18T08:52:23;4.18;;;2.92;;
21862;SDS011;11096;51.338;12.524;2022-10-18T08:55:01;5.25;;;2.72;;
21862;SDS011;11096;51.338;12.524;2022-10-18T08:57:29;5.75;;;2.90;;
21862;SDS011;11096;51.338;12.524;2022-10-18T08:59:55;6.00;;;3.13;;
21862;SDS011;11096;51.338;12.524;2022-10-18T09:02:35;6.85;;;3.15;;
21862;SDS011;11096;51.338;12.524;2022-10-18T09:16:12;4.65;;;2.10;;
21862;SDS011;11096;51.338;12.524;2022-10-18T09:27:03;3.63;;;2.00;;
21862;SDS011;11096;51.338;12.524;2022-10-18T09:34:45;4.50;;;2.47;;
21862;SDS011;11096;51.338;12.524;2022-10-18T09:37:17;4.90;;;2.60;;
21862;SDS011;11096;51.338;12.524;2022-10-18T09:39:44;3.85;;;2.78;;
21862;SDS011;11096;51.338;12.524;2022-10-18T09:42:17;4.78;;;3.00;;
21862;SDS011;11096;51.338;12.524;2022-10-18T09:44:53;3.72;;;2.72;;
21862;SDS011;11096;51.338;12.524;2022-10-18T09:47:24;3.03;;;2.53;;
21862;SDS011;11096;51.338;12.524;2022-10-18T09:49:55;2.97;;;2.50;;
21862;SDS011;11096;51.338;12.524;2022-10-18T09:52:25;3.97;;;2.85;;
21862;SDS011;11096;51.338;12.524;2022-10-18T09:55:16;3.15;;;2.65;;
21862;SDS011;11096;51.338;12.524;2022-10-18T09:57:50;3.08;;;2.60;;
21862;SDS011;11096;51.338;12.524;2022-10-18T10:00:22;3.65;;;2.70;;
21862;SDS011;11096;51.338;12.524;2022-10-18T10:02:52;2.90;;;2.53;;
21862;SDS011;11096;51.338;12.524;2022-10-18T10:05:18;3.88;;;2.80;;
21862;SDS011;11096;51.338;12.524;2022-10-18T10:07:44;4.15;;;2.75;;
21862;SDS011;11096;51.338;12.524;2022-10-18T10:10:22;4.70;;;3.20;;
21862;SDS011;11096;51.338;12.524;2022-10-18T10:13:31;6.00;;;3.97;;
21862;SDS011;11096;51.338;12.524;2022-10-18T10:15:52;6.18;;;4.20;;
21862;SDS011;11096;51.338;12.524;2022-10-18T10:18:20;4.72;;;3.63;;
21862;SDS011;11096;51.338;12.524;2022-10-18T10:20:49;5.03;;;3.60;;
21862;SDS011;11096;51.338;12.524;2022-10-18T10:25:52;5.20;;;3.70;;
21862;SDS011;11096;51.338;12.524;2022-10-18T10:28:21;4.35;;;3.30;;
21862;SDS011;11096;51.338;12.524;2022-10-18T10:30:48;4.00;;;3.05;;
21862;SDS011;11096;51.338;12.524;2022-10-18T10:33:31;4.75;;;3.40;;
21862;SDS011;11096;51.338;12.524;2022-10-18T10:35:58;4.60;;;3.28;;
21862;SDS011;11096;51.338;12.524;2022-10-18T10:38:25;5.55;;;3.30;;
21862;SDS011;11096;51.338;12.524;2022-10-18T10:40:52;3.38;;;2.95;;
21862;SDS011;11096;51.338;12.524;2022-10-18T10:43:20;5.65;;;3.60;;
21862;SDS011;11096;51.338;12.524;2022-10-18T10:48:23;6.28;;;3.60;;
21862;SDS011;11096;51.338;12.524;2022-10-18T10:56:23;4.25;;;3.20;;
21862;SDS011;11096;51.338;12.524;2022-10-18T10:58:54;3.88;;;2.92;;
21862;SDS011;11096;51.338;12.524;2022-10-18T11:01:26;3.63;;;3.13;;
21862;SDS011;11096;51.338;12.524;2022-10-18T11:03:55;4.38;;;3.30;;
21862;SDS011;11096;51.338;12.524;2022-10-18T11:06:34;7.80;;;3.10;;
21862;SDS011;11096;51.338;12.524;2022-10-18T11:09:08;4.40;;;3.40;;
21862;SDS011;11096;51.338;12.524;2022-10-18T11:11:43;5.22;;;3.53;;
21862;SDS011;11096;51.338;12.524;2022-10-18T11:14:20;6.47;;;3.25;;
21862;SDS011;11096;51.338;12.524;2022-10-18T11:17:01;4.75;;;3.60;;
21862;SDS011;11096;51.338;12.524;2022-10-18T11:19:37;3.78;;;3.35;;
21862;SDS011;11096;51.338;12.524;2022-10-18T11:22:10;3.75;;;2.72;;
21862;SDS011;11096;51.338;12.524;2022-10-18T11:24:41;3.40;;;2.85;;
21862;SDS011;11096;51.338;12.524;2022-10-18T11:27:13;2.90;;;2.50;;
21862;SDS011;11096;51.338;12.524;2022-10-18T11:29:57;4.05;;;2.92;;
21862;SDS011;11096;51.338;12.524;2022-10-18T11:35:22;3.90;;;2.88;;
21862;SDS011;11096;51.338;12.524;2022-10-18T11:46:33;5.38;;;3.50;;
21862;SDS011;11096;51.338;12.524;2022-10-18T11:54:40;3.47;;;2.33;;
21862;SDS011;11096;51.338;12.524;2022-10-18T12:05:43;3.67;;;2.70;;
21862;SDS011;11096;51.338;12.524;2022-10-18T12:08:15;3.33;;;2.30;;
21862;SDS011;11096;51.338;12.524;2022-10-18T12:10:48;3.75;;;2.40;;
21862;SDS011;11096;51.338;12.524;2022-10-18T12:13:17;4.38;;;2.80;;
21862;SDS011;11096;51.338;12.524;2022-10-18T12:15:57;3.13;;;2.42;;
21862;SDS011;11096;51.338;12.524;2022-10-18T12:18:23;3.15;;;2.35;;
21862;SDS011;11096;51.338;12.524;2022-10-18T12:20:52;2.92;;;2.42;;
21862;SDS011;11096;51.338;12.524;2022-10-18T12:25:54;5.30;;;2.90;;
21862;SDS011;11096;51.338;12.524;2022-10-18T12:28:31;3.42;;;2.80;;
21862;SDS011;11096;51.338;12.524;2022-10-18T12:33:41;4.30;;;2.60;;
21862;SDS011;11096;51.338;12.524;2022-10-18T12:38:46;3.72;;;2.55;;
21862;SDS011;11096;51.338;12.524;2022-10-18T12:41:18;3.00;;;2.22;;
21862;SDS011;11096;51.338;12.524;2022-10-18T12:43:59;4.05;;;2.40;;
21862;SDS011;11096;51.338;12.524;2022-10-18T12:46:41;3.55;;;2.50;;
21862;SDS011;11096;51.338;12.524;2022-10-18T12:49:16;4.82;;;3.05;;
21862;SDS011;11096;51.338;12.524;2022-10-18T12:51:51;3.72;;;2.90;;
21862;SDS011;11096;51.338;12.524;2022-10-18T12:54:20;3.58;;;2.85;;
21862;SDS011;11096;51.338;12.524;2022-10-18T12:56:49;4.82;;;2.70;;
21862;SDS011;11096;51.338;12.524;2022-10-18T13:09:25;3.80;;;2.60;;
21862;SDS011;11096;51.338;12.524;2022-10-18T13:11:57;4.22;;;2.90;;
21862;SDS011;11096;51.338;12.524;2022-10-18T13:25:20;5.22;;;3.25;;
21862;SDS011;11096;51.338;12.524;2022-10-18T13:31:12;6.35;;;4.45;;
21862;SDS011;11096;51.338;12.524;2022-10-18T13:33:44;6.97;;;4.32;;
21862;SDS011;11096;51.338;12.524;2022-10-18T13:38:45;9.95;;;5.47;;
21862;SDS011;11096;51.338;12.524;2022-10-18T13:41:23;7.28;;;5.00;;
21862;SDS011;11096;51.338;12.524;2022-10-18T13:43:57;10.60;;;5.72;;
21862;SDS011;11096;51.338;12.524;2022-10-18T14:00:19;8.18;;;5.50;;
21862;SDS011;11096;51.338;12.524;2022-10-18T14:08:33;7.35;;;6.05;;
21862;SDS011;11096;51.338;12.524;2022-10-18T14:11:04;7.70;;;5.82;;
21862;SDS011;11096;51.338;12.524;2022-10-18T14:13:37;5.88;;;5.18;;
21862;SDS011;11096;51.338;12.524;2022-10-18T14:16:53;6.93;;;4.82;;
21862;SDS011;11096;51.338;12.524;2022-10-18T14:19:05;5.45;;;4.53;;
21862;SDS011;11096;51.338;12.524;2022-10-18T14:21:57;4.68;;;4.18;;
21862;SDS011;11096;51.338;12.524;2022-10-18T14:24:29;4.63;;;3.95;;
21862;SDS011;11096;51.338;12.524;2022-10-18T14:29:47;5.43;;;4.13;;
21862;SDS011;11096;51.338;12.524;2022-10-18T14:32:24;6.43;;;5.05;;
21862;SDS011;11096;51.338;12.524;2022-10-18T14:34:52;5.00;;;4.20;;
21862;SDS011;11096;51.338;12.524;2022-10-18T14:37:20;4.60;;;4.15;;
21862;SDS011;11096;51.338;12.524;2022-10-18T14:39:51;8.10;;;4.53;;
21862;SDS011;11096;51.338;12.524;2022-10-18T14:42:18;4.75;;;4.10;;
21862;SDS011;11096;51.338;12.524;2022-10-18T14:44:48;6.82;;;5.00;;
21862;SDS011;11096;51.338;12.524;2022-10-18T14:49:47;9.55;;;4.82;;
21862;SDS011;11096;51.338;12.524;2022-10-18T14:52:15;6.25;;;4.93;;
21862;SDS011;11096;51.338;12.524;2022-10-18T14:54:43;7.20;;;5.25;;
21862;SDS011;11096;51.338;12.524;2022-10-18T14:57:17;5.10;;;4.40;;
21862;SDS011;11096;51.338;12.524;2022-10-18T14:59:47;6.80;;;5.00;;
21862;SDS011;11096;51.338;12.524;2022-10-18T15:02:21;7.93;;;5.10;;
21862;SDS011;11096;51.338;12.524;2022-10-18T15:07:34;6.72;;;5.97;;
21862;SDS011;11096;51.338;12.524;2022-10-18T15:10:00;8.60;;;6.13;;
21862;SDS011;11096;51.338;12.524;2022-10-18T15:12:28;8.15;;;6.38;;
21862;SDS011;11096;51.338;12.524;2022-10-18T15:14:55;8.40;;;6.00;;
21862;SDS011;11096;51.338;12.524;2022-10-18T15:17:26;7.93;;;5.80;;
21862;SDS011;11096;51.338;12.524;2022-10-18T15:20:01;9.20;;;6.38;;
21862;SDS011;11096;51.338;12.524;2022-10-18T15:22:45;7.82;;;5.65;;
21862;SDS011;11096;51.338;12.524;2022-10-18T15:25:12;8.20;;;6.00;;
21862;SDS011;11096;51.338;12.524;2022-10-18T15:27:58;6.93;;;5.50;;
21862;SDS011;11096;51.338;12.524;2022-10-18T15:30:26;7.85;;;5.82;;
21862;SDS011;11096;51.338;12.524;2022-10-18T15:32:58;7.25;;;5.57;;
21862;SDS011;11096;51.338;12.524;2022-10-18T15:35:35;7.03;;;5.65;;
21862;SDS011;11096;51.338;12.524;2022-10-18T15:40:49;8.15;;;6.03;;
21862;SDS011;11096;51.338;12.524;2022-10-18T15:46:01;8.30;;;6.05;;
21862;SDS011;11096;51.338;12.524;2022-10-18T15:48:32;7.28;;;5.75;;
21862;SDS011;11096;51.338;12.524;2022-10-18T15:51:04;9.48;;;6.03;;
21862;SDS011;11096;51.338;12.524;2022-10-18T15:53:40;6.88;;;5.22;;
21862;SDS011;11096;51.338;12.524;2022-10-18T15:58:45;7.55;;;5.47;;
21862;SDS011;11096;51.338;12.524;2022-10-18T16:01:32;7.47;;;5.75;;
21862;SDS011;11096;51.338;12.524;2022-10-18T16:03:57;8.90;;;6.13;;
21862;SDS011;11096;51.338;12.524;2022-10-18T16:06:24;8.00;;;5.55;;
21862;SDS011;11096;51.338;12.524;2022-10-18T16:08:50;8.32;;;6.28;;
21862;SDS011;11096;51.338;12.524;2022-10-18T16:11:25;9.50;;;6.38;;
21862;SDS011;11096;51.338;12.524;2022-10-18T16:13:51;7.60;;;5.95;;
21862;SDS011;11096;51.338;12.524;2022-10-18T16:16:18;7.10;;;5.97;;
21862;SDS011;11096;51.338;12.524;2022-10-18T16:18:46;8.85;;;5.47;;
21862;SDS011;11096;51.338;12.524;2022-10-18T16:21:14;7.85;;;5.95;;
21862;SDS011;11096;51.338;12.524;2022-10-18T16:23:44;7.75;;;5.82;;
21862;SDS011;11096;51.338;12.524;2022-10-18T16:26:10;9.20;;;6.28;;
21862;SDS011;11096;51.338;12.524;2022-10-18T16:28:36;8.23;;;6.05;;
21862;SDS011;11096;51.338;12.524;2022-10-18T16:31:02;9.07;;;6.10;;
21862;SDS011;11096;51.338;12.524;2022-10-18T16:33:28;8.38;;;6.00;;
21862;SDS011;11096;51.338;12.524;2022-10-18T16:35:54;9.10;;;5.75;;
21862;SDS011;11096;51.338;12.524;2022-10-18T16:38:27;7.00;;;5.30;;
21862;SDS011;11096;51.338;12.524;2022-10-18T16:40:54;9.43;;;5.63;;
21862;SDS011;11096;51.338;12.524;2022-10-18T16:43:20;7.93;;;5.55;;
21862;SDS011;11096;51.338;12.524;2022-10-18T16:45:46;9.15;;;6.20;;
21862;SDS011;11096;51.338;12.524;2022-10-18T16:48:13;36.17;;;21.58;;
21862;SDS011;11096;51.338;12.524;2022-10-18T16:50:40;100.47;;;53.25;;
21862;SDS011;11096;51.338;12.524;2022-10-18T16:53:06;91.25;;;49.00;;
21862;SDS011;11096;51.338;12.524;2022-10-18T16:55:31;59.60;;;33.83;;
21862;SDS011;11096;51.338;12.524;2022-10-18T16:57:58;57.10;;;32.90;;
21862;SDS011;11096;51.338;12.524;2022-10-18T17:00:23;40.03;;;23.77;;
21862;SDS011;11096;51.338;12.524;2022-10-18T17:02:49;27.70;;;17.17;;
21862;SDS011;11096;51.338;12.524;2022-10-18T17:05:15;17.85;;;11.85;;
21862;SDS011;11096;51.338;12.524;2022-10-18T17:07:41;12.88;;;9.38;;
21862;SDS011;11096;51.338;12.524;2022-10-18T17:10:07;13.68;;;9.23;;
21862;SDS011;11096;51.338;12.524;2022-10-18T17:12:35;11.70;;;8.00;;
21862;SDS011;11096;51.338;12.524;2022-10-18T17:15:00;9.98;;;6.93;;
21862;SDS011;11096;51.338;12.524;2022-10-18T17:17:25;9.73;;;6.90;;